Uster, Switzerland
Current Conditions -  °F | °C
As of 5:50 PM on Wednesday 26 Nov 2014 (Local Time) from LSMD Reporting Station
Overcast Overcast  
Wind Chill: 46°   Ceiling: 600
Heat Index: 46°   Visibility: 4mi
Dew Point: 45°   Wind: 2mph
Humidity: 93%   Direction: NA
Pressure: 29.91"   Gusts: NA
Location:  47.36°N, 8.71°E
Report Text: LSMD 261650Z AUTO VRB02KT 7000NDV OVC006 08/07 Q1013 RMK YLO
Loading
Personal Weather Stations






























Interactive Weather Map New forecast layout! Learn more

10-Day Weather Forecast

Advertisements
Track Severe Weather on mobile